createdAt,value
2019-02-18T00:01:36.333Z,19.95
2019-02-18T00:04:05.600Z,18.65
2019-02-18T00:06:35.189Z,20.12
2019-02-18T00:09:05.949Z,21.10
2019-02-18T00:11:35.441Z,19.98
2019-02-18T00:14:04.442Z,22.22
2019-02-18T00:16:34.109Z,24.20
2019-02-18T00:19:03.409Z,21.37
2019-02-18T00:21:32.244Z,21.77
2019-02-18T00:24:00.799Z,19.65
2019-02-18T00:26:29.378Z,20.57
2019-02-18T00:28:58.365Z,20.15
2019-02-18T00:31:26.914Z,20.95
2019-02-18T00:33:55.466Z,21.12
2019-02-18T00:36:24.066Z,17.98
2019-02-18T00:38:52.937Z,16.75
2019-02-18T00:41:21.864Z,18.90
2019-02-18T00:43:51.379Z,19.30
2019-02-18T00:46:20.897Z,17.40
2019-02-18T00:48:50.139Z,19.07
2019-02-18T00:51:18.722Z,21.48
2019-02-18T00:53:47.267Z,19.12
2019-02-18T00:56:16.227Z,20.45
2019-02-18T00:58:44.835Z,20.92
2019-02-18T01:01:13.397Z,20.48
2019-02-18T01:03:42.024Z,22.20
2019-02-18T01:06:10.611Z,22.67
2019-02-18T01:08:39.952Z,20.02
2019-02-18T01:11:08.501Z,20.55
2019-02-18T01:13:37.156Z,18.77
2019-02-18T01:16:05.719Z,18.55
2019-02-18T01:18:34.306Z,21.90
2019-02-18T01:21:02.857Z,21.65
2019-02-18T01:23:31.758Z,18.40
2019-02-18T01:26:00.710Z,21.62
2019-02-18T01:28:29.644Z,19.12
2019-02-18T01:30:58.231Z,18.67
2019-02-18T01:33:26.829Z,19.32
2019-02-18T01:35:55.387Z,19.07
2019-02-18T01:38:23.952Z,19.07
2019-02-18T01:40:52.562Z,20.55
2019-02-18T01:43:21.118Z,20.25
2019-02-18T01:45:49.673Z,20.75
2019-02-18T01:48:18.259Z,20.90
2019-02-18T01:50:46.825Z,20.57
2019-02-18T01:53:15.423Z,18.32
2019-02-18T01:55:43.992Z,18.07
2019-02-18T01:58:12.551Z,21.30
2019-02-18T02:00:41.166Z,21.30
2019-02-18T02:03:09.745Z,22.20
2019-02-18T02:05:38.293Z,20.65
2019-02-18T02:08:06.960Z,17.65
2019-02-18T02:13:26.603Z,20.88
2019-02-18T02:15:55.182Z,21.30
2019-02-18T02:18:24.030Z,19.87
2019-02-18T02:20:52.949Z,19.90
2019-02-18T02:23:21.496Z,20.48
2019-02-18T02:25:50.049Z,21.05
2019-02-18T02:28:18.722Z,19.65
2019-02-18T02:30:47.275Z,18.92
2019-02-18T02:33:15.849Z,20.48
2019-02-18T02:35:44.426Z,19.30
2019-02-18T02:38:12.975Z,15.10
2019-02-18T02:40:41.555Z,18.48
2019-02-18T02:43:10.114Z,19.32
2019-02-18T02:45:38.678Z,19.00
2019-02-18T02:48:07.274Z,20.10
2019-02-18T02:50:35.834Z,21.57
2019-02-18T02:53:04.396Z,20.48
2019-02-18T02:55:32.979Z,21.05
2019-02-18T02:58:01.573Z,22.65
2019-02-18T03:00:30.138Z,22.02
2019-02-18T03:02:58.751Z,22.62
2019-02-18T03:05:27.350Z,22.82
2019-02-18T03:07:55.900Z,22.42
2019-02-18T03:10:24.493Z,23.00
2019-02-18T03:12:53.087Z,22.02
2019-02-18T03:15:21.675Z,22.90
2019-02-18T03:17:50.234Z,20.72
2019-02-18T03:20:18.830Z,21.30
2019-02-18T03:22:47.386Z,22.35
2019-02-18T03:25:26.788Z,18.05
2019-02-18T03:28:01.883Z,20.43
2019-02-18T03:30:46.042Z,22.30
2019-02-18T03:33:17.002Z,22.58
2019-02-18T03:35:45.597Z,24.63
2019-02-18T03:38:14.440Z,20.92
2019-02-18T03:40:42.996Z,21.40
2019-02-18T03:43:11.588Z,20.62
2019-02-18T03:45:40.226Z,17.80
2019-02-18T03:48:08.771Z,19.90
2019-02-18T03:50:37.344Z,21.05
2019-02-18T03:53:05.928Z,21.45
2019-02-18T03:55:34.601Z,19.17
2019-02-18T03:58:03.224Z,18.75
2019-02-18T04:00:31.711Z,18.10
2019-02-18T04:03:00.296Z,17.35
2019-02-18T04:05:28.913Z,19.10
2019-02-18T04:07:57.462Z,18.07
2019-02-18T04:10:26.037Z,19.75
2019-02-18T04:12:54.685Z,17.27
2019-02-18T04:15:23.262Z,18.87
2019-02-18T04:17:52.111Z,18.23
2019-02-18T04:20:21.035Z,19.37
2019-02-18T04:22:49.617Z,24.07
2019-02-18T04:25:18.178Z,21.48
2019-02-18T04:27:46.775Z,22.98
2019-02-18T04:30:15.339Z,21.33
2019-02-18T04:32:43.895Z,21.33
2019-02-18T04:35:12.473Z,19.07
2019-02-18T04:37:41.018Z,17.20
2019-02-18T04:40:09.646Z,19.62
2019-02-18T04:42:38.207Z,20.88
2019-02-18T04:45:06.779Z,21.10
2019-02-18T04:47:35.366Z,21.15
2019-02-18T04:50:03.926Z,21.10
2019-02-18T04:52:32.487Z,20.85
2019-02-18T04:55:01.151Z,19.85
2019-02-18T04:57:31.440Z,21.00
2019-02-18T04:59:59.992Z,22.27
2019-02-18T05:02:28.574Z,20.37
2019-02-18T05:04:57.123Z,23.42
2019-02-18T05:07:25.698Z,22.07
2019-02-18T05:09:54.276Z,22.05
2019-02-18T05:12:22.829Z,21.85
2019-02-18T05:14:51.509Z,20.37
2019-02-18T05:17:20.097Z,22.25
2019-02-18T05:19:48.647Z,22.67
2019-02-18T05:22:17.253Z,22.45
2019-02-18T05:24:46.524Z,20.02
2019-02-18T05:27:15.071Z,20.55
2019-02-18T05:29:43.623Z,20.92
2019-02-18T05:32:12.207Z,20.08
2019-02-18T05:34:40.804Z,22.40
2019-02-18T05:37:09.379Z,22.67
2019-02-18T05:39:37.980Z,20.70
2019-02-18T05:42:06.923Z,26.33
2019-02-18T05:44:35.482Z,22.93
2019-02-18T05:47:04.070Z,22.30
2019-02-18T05:49:32.618Z,21.75
2019-02-18T05:52:01.204Z,20.80
2019-02-18T05:54:29.753Z,21.37
2019-02-18T05:56:58.344Z,20.45
2019-02-18T05:59:26.933Z,24.63
2019-02-18T06:01:55.478Z,22.07
2019-02-18T06:04:24.071Z,22.40
2019-02-18T06:06:52.998Z,23.38
2019-02-18T06:09:29.182Z,26.90
2019-02-18T06:11:51.986Z,24.75
2019-02-18T06:14:20.531Z,25.72
2019-02-18T06:16:49.109Z,23.87
2019-02-18T06:19:17.695Z,22.02
2019-02-18T06:21:46.274Z,26.23
2019-02-18T06:24:14.834Z,30.17
2019-02-18T06:26:43.406Z,30.37
2019-02-18T06:29:11.968Z,28.95
2019-02-18T06:31:40.548Z,28.47
2019-02-18T06:34:09.115Z,23.42
2019-02-18T06:36:37.716Z,26.40
2019-02-18T06:39:06.531Z,28.10
2019-02-18T06:41:35.084Z,28.40
2019-02-18T06:44:03.666Z,29.30
2019-02-18T06:46:50.520Z,25.37
2019-02-18T06:49:21.322Z,25.27
2019-02-18T06:51:49.882Z,24.05
2019-02-18T06:54:18.479Z,25.48
2019-02-18T06:56:59.953Z,24.70
2019-02-18T06:59:35.136Z,22.05
2019-02-18T07:02:08.722Z,24.23
2019-02-18T07:05:02.344Z,24.80
2019-02-18T07:10:25.488Z,25.55
2019-02-18T07:13:02.303Z,29.37
2019-02-18T07:15:31.558Z,28.70
2019-02-18T07:18:00.151Z,30.10
2019-02-18T07:20:28.735Z,29.75
2019-02-18T07:22:58.694Z,28.02
2019-02-18T07:25:27.279Z,33.58
2019-02-18T07:27:55.866Z,32.65
2019-02-18T07:30:24.433Z,32.38
2019-02-18T07:32:53.023Z,31.10
2019-02-18T07:35:21.606Z,30.88
2019-02-18T07:37:50.161Z,30.88
2019-02-18T07:40:18.753Z,28.05
2019-02-18T07:42:56.264Z,27.75
2019-02-18T07:45:31.834Z,26.87
2019-02-18T07:48:00.382Z,25.90
2019-02-18T07:50:28.971Z,26.87
2019-02-18T07:52:59.407Z,26.37
2019-02-18T07:55:28.002Z,32.05
2019-02-18T07:57:56.589Z,28.05
2019-02-18T08:00:25.170Z,26.42
2019-02-18T08:02:53.723Z,24.27
2019-02-18T08:05:22.321Z,23.27
2019-02-18T08:07:50.845Z,23.52
2019-02-18T08:10:19.454Z,22.77
2019-02-18T08:12:48.008Z,20.92
2019-02-18T08:15:16.656Z,21.82
2019-02-18T08:17:45.218Z,21.05
2019-02-18T08:20:13.770Z,21.80
2019-02-18T08:22:42.351Z,21.95
2019-02-18T08:25:10.991Z,20.25
2019-02-18T08:27:39.549Z,19.32
2019-02-18T08:30:09.519Z,19.30
2019-02-18T08:32:38.069Z,20.10
2019-02-18T08:35:06.700Z,20.23
2019-02-18T08:37:35.257Z,21.70
2019-02-18T08:40:03.810Z,19.35
2019-02-18T08:42:34.171Z,20.32
2019-02-18T08:45:02.955Z,22.22
2019-02-18T08:47:31.513Z,20.85
2019-02-18T08:50:00.322Z,20.55
2019-02-18T08:52:28.959Z,20.52
2019-02-18T08:54:57.616Z,20.65
2019-02-18T08:57:26.159Z,19.37
2019-02-18T08:59:54.751Z,22.00
2019-02-18T09:02:23.343Z,24.35
2019-02-18T09:04:51.929Z,23.87
2019-02-18T09:07:20.576Z,24.67
2019-02-18T09:10:07.571Z,22.27
2019-02-18T09:12:36.154Z,23.90
2019-02-18T09:15:04.928Z,22.22
2019-02-18T09:17:33.522Z,20.43
2019-02-18T09:20:02.093Z,23.07
2019-02-18T09:22:44.633Z,22.60
2019-02-18T09:25:21.818Z,25.68
2019-02-18T09:27:51.785Z,25.43
2019-02-18T09:30:24.337Z,23.45
2019-02-18T09:32:52.893Z,25.82
2019-02-18T09:35:26.179Z,26.85
2019-02-18T09:37:55.033Z,27.60
2019-02-18T09:40:23.617Z,29.30
2019-02-18T09:42:52.168Z,27.98
2019-02-18T09:45:20.729Z,23.10
2019-02-18T09:47:49.310Z,23.57
2019-02-18T09:50:18.201Z,25.43
2019-02-18T09:52:46.782Z,23.10
2019-02-18T09:55:15.343Z,23.73
2019-02-18T09:57:43.917Z,21.73
2019-02-18T10:00:13.078Z,24.52
2019-02-18T10:02:41.656Z,21.37
2019-02-18T10:05:10.275Z,19.55
2019-02-18T10:07:38.853Z,21.25
2019-02-18T10:10:07.447Z,20.37
2019-02-18T10:12:36.063Z,19.77
2019-02-18T10:15:04.682Z,20.97
2019-02-18T10:17:33.287Z,20.75
2019-02-18T10:20:01.896Z,19.77
2019-02-18T10:22:30.463Z,18.25
2019-02-18T10:24:59.051Z,20.23
2019-02-18T10:27:27.624Z,17.95
2019-02-18T10:29:56.193Z,17.80
2019-02-18T10:32:24.777Z,18.98
2019-02-18T10:34:53.444Z,19.37
2019-02-18T10:37:22.048Z,17.82
2019-02-18T10:39:50.621Z,18.10
2019-02-18T10:42:19.429Z,19.20
2019-02-18T10:44:48.035Z,17.67
2019-02-18T10:47:16.985Z,19.17
2019-02-18T10:49:45.551Z,17.90
2019-02-18T10:52:14.135Z,18.65
2019-02-18T10:54:42.707Z,18.57
2019-02-18T10:57:11.290Z,19.52
2019-02-18T10:59:39.854Z,18.42
2019-02-18T11:02:08.599Z,18.27
2019-02-18T11:04:37.189Z,19.27
2019-02-18T11:07:05.783Z,18.20
2019-02-18T11:09:34.343Z,17.80
2019-02-18T11:12:02.912Z,18.98
2019-02-18T11:14:31.512Z,17.00
2019-02-18T11:17:00.096Z,18.92
2019-02-18T11:19:28.668Z,17.82
2019-02-18T11:21:57.259Z,15.32
2019-02-18T11:24:25.822Z,17.75
2019-02-18T11:26:54.678Z,16.07
2019-02-18T11:29:23.238Z,17.73
2019-02-18T11:31:51.804Z,15.85
2019-02-18T11:34:20.445Z,15.85
2019-02-18T11:36:49.010Z,16.48
2019-02-18T11:39:17.674Z,17.20
2019-02-18T11:41:46.715Z,15.45
2019-02-18T11:44:15.755Z,16.45
2019-02-18T11:46:44.345Z,16.25
2019-02-18T11:49:12.906Z,15.90
2019-02-18T11:51:41.507Z,17.42
2019-02-18T11:54:10.074Z,17.57
2019-02-18T11:56:39.577Z,16.77
2019-02-18T11:59:08.216Z,16.23
2019-02-18T12:01:36.804Z,16.45
2019-02-18T12:04:05.367Z,16.20
2019-02-18T12:06:33.965Z,15.60
2019-02-18T12:09:02.802Z,15.48
2019-02-18T12:11:38.064Z,16.07
2019-02-18T12:14:01.957Z,14.68
2019-02-18T12:16:30.518Z,16.40
2019-02-18T12:18:59.144Z,15.38
2019-02-18T12:21:27.771Z,16.12
2019-02-18T12:23:56.330Z,15.38
2019-02-18T12:26:24.942Z,15.90
2019-02-18T12:28:53.793Z,15.35
2019-02-18T12:31:22.358Z,13.30
2019-02-18T12:33:52.098Z,14.07
2019-02-18T12:36:20.797Z,12.98
2019-02-18T12:38:49.362Z,13.83
2019-02-18T12:41:17.917Z,15.05
2019-02-18T12:43:46.682Z,12.80
2019-02-18T12:46:16.190Z,13.78
2019-02-18T12:48:44.866Z,13.93
2019-02-18T12:51:13.429Z,13.48
2019-02-18T12:53:42.010Z,13.85
2019-02-18T12:56:10.606Z,13.85
2019-02-18T12:58:40.504Z,12.70
2019-02-18T13:01:09.138Z,14.95
2019-02-18T13:03:37.714Z,13.10
2019-02-18T13:06:06.317Z,12.82
2019-02-18T13:08:34.893Z,12.90
2019-02-18T13:11:03.461Z,12.13
2019-02-18T13:13:32.051Z,11.85
2019-02-18T13:16:00.641Z,10.98
2019-02-18T13:18:29.650Z,11.12
2019-02-18T13:20:58.239Z,10.70
2019-02-18T13:23:26.808Z,12.10
2019-02-18T13:25:55.394Z,11.55
2019-02-18T13:28:24.018Z,11.63
2019-02-18T13:30:52.569Z,11.30
2019-02-18T13:33:21.140Z,11.97
2019-02-18T13:35:50.100Z,12.13
2019-02-18T13:38:18.661Z,12.70
2019-02-18T13:40:47.239Z,12.03
2019-02-18T13:43:15.821Z,12.07
2019-02-18T13:45:44.412Z,12.10
2019-02-18T13:48:12.982Z,11.83
2019-02-18T13:50:41.557Z,11.12
2019-02-18T13:53:10.744Z,13.05
2019-02-18T13:55:39.329Z,12.90
2019-02-18T13:58:07.965Z,12.47
2019-02-18T14:00:36.555Z,11.80
2019-02-18T14:03:05.123Z,12.93
2019-02-18T14:05:33.735Z,13.58
2019-02-18T14:08:02.696Z,13.65
2019-02-18T14:10:31.256Z,12.13
2019-02-18T14:13:01.046Z,13.85
2019-02-18T14:15:29.561Z,12.05
2019-02-18T14:17:58.149Z,13.62
2019-02-18T14:20:26.754Z,13.48
2019-02-18T14:22:55.804Z,12.63
2019-02-18T14:25:24.517Z,13.53
2019-02-18T14:27:53.091Z,13.25
2019-02-18T14:30:21.689Z,13.95
2019-02-18T14:32:51.203Z,14.87
2019-02-18T14:35:19.769Z,14.25
2019-02-18T14:37:48.846Z,13.50
2019-02-18T14:40:18.285Z,14.23
2019-02-18T14:42:46.846Z,13.68
2019-02-18T14:45:15.739Z,13.68
2019-02-18T14:47:44.329Z,14.50
2019-02-18T14:50:12.925Z,13.18
2019-02-18T14:52:41.506Z,14.63
2019-02-18T14:55:10.069Z,14.23
2019-02-18T14:57:38.664Z,14.43
2019-02-18T15:00:20.357Z,13.60
2019-02-18T15:02:49.347Z,14.00
2019-02-18T15:05:17.933Z,15.43
2019-02-18T15:07:46.613Z,15.48
2019-02-18T15:10:15.825Z,14.03
2019-02-18T15:12:44.396Z,14.73
2019-02-18T15:15:12.980Z,14.83
2019-02-18T15:17:41.558Z,15.58
2019-02-18T15:20:11.536Z,15.40
2019-02-18T15:22:40.668Z,15.93
2019-02-18T15:25:09.260Z,15.15
2019-02-18T15:27:37.898Z,14.80
2019-02-18T15:30:07.648Z,15.43
2019-02-18T15:32:36.214Z,14.28
2019-02-18T15:35:04.825Z,15.43
2019-02-18T15:37:33.800Z,15.45
2019-02-18T15:40:02.360Z,16.02
2019-02-18T15:42:30.966Z,15.58
2019-02-18T15:44:59.527Z,15.80
2019-02-18T15:47:28.173Z,16.70
2019-02-18T15:49:56.754Z,16.97
2019-02-18T15:52:25.683Z,17.98
2019-02-18T15:54:54.241Z,14.28
2019-02-18T15:57:22.842Z,14.58
2019-02-18T15:59:51.409Z,16.17
2019-02-18T16:02:19.975Z,14.60
2019-02-18T16:04:48.572Z,15.88
2019-02-18T16:07:17.140Z,16.02
2019-02-18T16:09:45.752Z,20.85
2019-02-18T16:12:14.309Z,29.02
2019-02-18T16:14:42.893Z,19.48
2019-02-18T16:17:11.470Z,21.62
2019-02-18T16:19:40.090Z,18.77
2019-02-18T16:22:08.695Z,18.50
2019-02-18T16:24:37.633Z,18.32
2019-02-18T16:27:06.228Z,16.65
2019-02-18T16:29:34.787Z,22.35
2019-02-18T16:32:03.422Z,18.12
2019-02-18T16:34:32.310Z,17.23
2019-02-18T16:37:00.913Z,18.57
2019-02-18T16:39:29.478Z,16.85
2019-02-18T16:41:58.417Z,16.05
2019-02-18T16:44:27.000Z,16.42
2019-02-18T16:46:55.595Z,16.82
2019-02-18T16:49:24.152Z,20.72
2019-02-18T16:51:52.709Z,23.62
2019-02-18T16:54:21.294Z,20.62
2019-02-18T16:56:49.873Z,20.15
2019-02-18T16:59:18.478Z,22.42
2019-02-18T17:01:47.046Z,21.30
2019-02-18T17:04:15.602Z,15.58
2019-02-18T17:06:44.216Z,15.85
2019-02-18T17:09:13.694Z,15.43
2019-02-18T17:11:42.317Z,15.60
2019-02-18T17:14:10.909Z,14.98
2019-02-18T17:16:39.463Z,17.00
2019-02-18T17:19:08.036Z,18.35
2019-02-18T17:21:36.608Z,16.42
2019-02-18T17:24:05.166Z,16.23
2019-02-18T17:26:34.229Z,16.82
2019-02-18T17:29:02.787Z,15.10
2019-02-18T17:31:31.346Z,19.40
2019-02-18T17:33:59.937Z,17.02
2019-02-18T17:36:28.489Z,16.87
2019-02-18T17:38:57.040Z,17.15
2019-02-18T17:41:25.628Z,17.23
2019-02-18T17:43:54.465Z,15.58
2019-02-18T17:46:23.022Z,16.42
2019-02-18T17:48:51.608Z,16.10
2019-02-18T17:51:20.159Z,17.30
2019-02-18T17:53:48.718Z,15.58
2019-02-18T17:56:17.304Z,15.60
2019-02-18T17:58:46.235Z,16.52
2019-02-18T18:01:14.836Z,16.75
2019-02-18T18:03:43.428Z,15.10
2019-02-18T18:06:12.013Z,13.72
2019-02-18T18:08:40.568Z,14.70
2019-02-18T18:11:09.169Z,15.65
2019-02-18T18:13:37.721Z,16.73
2019-02-18T18:16:06.269Z,17.65
2019-02-18T18:18:34.854Z,15.65
2019-02-18T18:21:03.504Z,15.83
2019-02-18T18:23:32.089Z,15.30
2019-02-18T18:26:00.689Z,17.45
2019-02-18T18:28:29.248Z,17.05
2019-02-18T18:30:58.181Z,14.83
2019-02-18T18:33:26.780Z,13.83
2019-02-18T18:35:55.334Z,16.90
2019-02-18T18:38:23.893Z,18.75
2019-02-18T18:40:52.477Z,20.27
2019-02-18T18:43:21.061Z,16.60
2019-02-18T18:45:49.659Z,17.90
2019-02-18T18:48:18.213Z,16.62
2019-02-18T18:50:46.767Z,20.72
2019-02-18T18:53:15.347Z,15.53
2019-02-18T18:55:43.933Z,14.03
2019-02-18T18:58:12.509Z,13.72
2019-02-18T19:00:41.093Z,14.83
2019-02-18T19:03:09.648Z,13.45
2019-02-18T19:05:38.304Z,14.53
2019-02-18T19:08:06.864Z,14.78
2019-02-18T19:10:35.407Z,18.45
2019-02-18T19:13:04.036Z,15.15
2019-02-18T19:15:32.592Z,15.72
2019-02-18T19:18:01.149Z,14.47
2019-02-18T19:20:29.702Z,14.13
2019-02-18T19:22:58.292Z,14.13
2019-02-18T19:25:26.849Z,12.80
2019-02-18T19:27:55.405Z,13.53
2019-02-18T19:30:25.709Z,15.45
2019-02-18T19:32:54.285Z,13.58
2019-02-18T19:35:22.842Z,15.03
2019-02-18T19:37:51.434Z,14.33
2019-02-18T19:40:20.004Z,16.35
2019-02-18T19:42:48.553Z,18.05
2019-02-18T19:45:18.630Z,21.20
2019-02-18T19:47:47.215Z,18.57
2019-02-18T19:50:15.808Z,15.58
2019-02-18T19:52:44.367Z,16.15
2019-02-18T19:55:13.091Z,16.23
2019-02-18T19:57:41.683Z,19.07
2019-02-18T20:00:11.753Z,18.50
2019-02-18T20:02:40.298Z,15.23
2019-02-18T20:05:09.015Z,16.85
2019-02-18T20:07:37.644Z,16.30
2019-02-18T20:10:06.789Z,16.32
2019-02-18T20:12:35.349Z,17.17
2019-02-18T20:15:03.939Z,16.55
2019-02-18T20:17:32.509Z,15.95
2019-02-18T20:20:01.108Z,15.63
2019-02-18T20:22:29.704Z,16.60
2019-02-18T20:24:58.285Z,15.72
2019-02-18T20:27:26.877Z,19.90
2019-02-18T20:29:55.431Z,16.60
2019-02-18T20:32:24.360Z,15.88
2019-02-18T20:34:52.936Z,14.70
2019-02-18T20:37:21.497Z,16.12
2019-02-18T20:39:50.086Z,16.55
2019-02-18T20:42:18.640Z,15.50
2019-02-18T20:44:47.225Z,15.85
2019-02-18T20:47:16.097Z,14.33
2019-02-18T20:49:44.702Z,16.62
2019-02-18T20:52:13.265Z,15.03
2019-02-18T20:54:41.817Z,14.28
2019-02-18T20:57:10.397Z,15.80
2019-02-18T20:59:38.976Z,16.60
2019-02-18T21:02:07.937Z,17.67
2019-02-18T21:04:36.488Z,16.75
2019-02-18T21:07:05.170Z,16.82
2019-02-18T21:09:33.720Z,17.77
2019-02-18T21:12:02.276Z,16.45
2019-02-18T21:14:30.885Z,16.57
2019-02-18T21:16:59.465Z,15.58
2019-02-18T21:19:28.022Z,17.00
2019-02-18T21:21:56.633Z,16.85
2019-02-18T21:24:25.217Z,17.67
2019-02-18T21:26:53.797Z,15.40
2019-02-18T21:29:22.399Z,16.75
2019-02-18T21:31:50.981Z,17.32
2019-02-18T21:34:19.810Z,16.25
2019-02-18T21:36:48.401Z,17.55
2019-02-18T21:39:16.962Z,17.15
2019-02-18T21:41:45.872Z,17.75
2019-02-18T21:44:14.462Z,17.90
2019-02-18T21:46:43.012Z,17.27
2019-02-18T21:49:11.943Z,19.00
2019-02-18T21:51:40.529Z,18.00
2019-02-18T21:54:09.072Z,16.85
2019-02-18T21:56:37.625Z,18.52
2019-02-18T21:59:06.514Z,20.65
2019-02-18T22:01:35.099Z,18.45
2019-02-18T22:04:03.947Z,18.17
2019-02-18T22:06:32.901Z,18.10
2019-02-18T22:09:01.521Z,18.90
2019-02-18T22:11:30.067Z,18.52
2019-02-18T22:13:58.658Z,16.90
2019-02-18T22:16:27.216Z,17.10
2019-02-18T22:18:55.771Z,17.95
2019-02-18T22:21:24.728Z,17.12
2019-02-18T22:23:53.336Z,17.50
2019-02-18T22:26:21.914Z,18.52
2019-02-18T22:28:50.467Z,20.62
2019-02-18T22:31:19.062Z,18.52
2019-02-18T22:33:47.606Z,19.05
2019-02-18T22:36:16.176Z,18.37
2019-02-18T22:38:44.951Z,17.20
2019-02-18T22:41:13.508Z,20.12
2019-02-18T22:43:42.113Z,17.67
2019-02-18T22:46:10.679Z,18.85
2019-02-18T22:48:39.229Z,18.92
2019-02-18T22:51:07.817Z,17.17
2019-02-18T22:53:36.401Z,19.65
2019-02-18T22:56:05.007Z,18.00
2019-02-18T22:58:33.552Z,20.40
2019-02-18T23:01:02.860Z,17.23
2019-02-18T23:03:31.456Z,19.27
2019-02-18T23:06:00.079Z,18.82
2019-02-18T23:08:28.681Z,14.98
2019-02-18T23:10:58.102Z,17.67
2019-02-18T23:13:26.651Z,19.95
2019-02-18T23:15:56.453Z,19.23
2019-02-18T23:18:25.175Z,20.20
2019-02-18T23:20:53.735Z,18.80
2019-02-18T23:23:22.675Z,16.97
2019-02-18T23:25:51.292Z,18.00
2019-02-18T23:28:20.123Z,19.40
2019-02-18T23:30:48.665Z,17.90
2019-02-18T23:33:17.265Z,18.60
2019-02-18T23:35:46.212Z,19.65
2019-02-18T23:38:14.765Z,18.60
2019-02-18T23:40:43.448Z,17.62
2019-02-18T23:43:12.001Z,18.27
2019-02-18T23:45:40.550Z,17.23
2019-02-18T23:48:09.145Z,17.25
2019-02-18T23:50:37.700Z,19.95
2019-02-18T23:53:06.255Z,16.93
2019-02-18T23:55:34.858Z,18.37
2019-02-18T23:58:03.442Z,17.50
